Time;durP1;ratioP1;P1;durP2;ratioP2;P2;SDS_P1;SDS_P2;PMS_P1;PMS_P2;Temp;Humidity;BMP_temperature;BMP_pressure;BME280_temperature;BME280_humidity;BME280_pressure;Samples;Min_cycle;Max_cycle;Signal;HPM_P1;HPM_P2
2023/08/11 00:00:08;;;;;;;3.10;1.43;;;15.00;52.70;;;;;;5053442;28;20226;-80
2023/08/11 00:02:39;;;;;;;4.80;1.47;;;15.00;52.60;;;;;;5035823;28;21880;-79
2023/08/11 00:05:11;;;;;;;7.70;1.50;;;15.20;51.80;;;;;;5053390;28;20229;-81
2023/08/11 00:07:38;;;;;;;4.70;1.40;;;15.30;52.20;;;;;;5052781;28;20212;-82
2023/08/11 00:10:07;;;;;;;3.57;1.40;;;15.50;51.60;;;;;;5036111;28;20176;-79
2023/08/11 00:12:36;;;;;;;12.23;1.60;;;15.50;51.80;;;;;;5052398;28;20267;-78
2023/08/11 00:15:06;;;;;;;4.23;1.77;;;15.60;51.60;;;;;;5050301;28;20665;-78
2023/08/11 00:17:38;;;;;;;6.43;2.03;;;15.60;51.20;;;;;;5050105;28;20517;-83
2023/08/11 00:20:08;;;;;;;2.93;1.37;;;15.60;51.20;;;;;;5053398;28;20184;-77
2023/08/11 00:22:37;;;;;;;2.70;1.20;;;15.80;50.70;;;;;;5049970;28;20187;-77
2023/08/11 00:25:08;;;;;;;2.33;1.20;;;15.70;50.20;;;;;;5044255;28;20655;-78
2023/08/11 00:27:36;;;;;;;4.43;1.40;;;15.80;50.50;;;;;;5050006;28;20223;-80
2023/08/11 00:30:05;;;;;;;5.57;1.67;;;16.00;50.10;;;;;;5042124;28;20213;-81
2023/08/11 00:32:34;;;;;;;4.70;1.53;;;16.10;50.30;;;;;;5048597;28;20183;-78
2023/08/11 00:35:02;;;;;;;3.03;1.30;;;16.10;49.90;;;;;;5053407;28;20187;-80
2023/08/11 00:37:29;;;;;;;3.90;1.50;;;16.20;49.10;;;;;;5051989;28;20223;-80
2023/08/11 00:39:58;;;;;;;5.03;1.77;;;16.30;49.50;;;;;;5052653;28;20321;-81
2023/08/11 00:42:28;;;;;;;3.87;1.10;;;16.30;49.20;;;;;;5047433;28;20189;-77
2023/08/11 00:44:58;;;;;;;3.40;1.23;;;16.60;48.80;;;;;;5051917;28;20194;-76
2023/08/11 00:47:32;;;;;;;3.20;1.20;;;16.50;48.70;;;;;;5052419;28;20215;-80
2023/08/11 00:50:00;;;;;;;3.40;1.30;;;16.60;48.80;;;;;;5034137;28;20185;-79
2023/08/11 00:52:31;;;;;;;4.07;1.30;;;16.60;47.80;;;;;;5033572;28;20186;-80
2023/08/11 00:55:05;;;;;;;3.50;1.23;;;16.60;48.20;;;;;;5035501;28;20242;-82
2023/08/11 00:57:34;;;;;;;2.90;1.57;;;16.70;48.00;;;;;;5048222;28;20183;-78
2023/08/11 01:00:11;;;;;;;2.67;1.30;;;17.00;48.60;;;;;;5052555;28;20205;-77
2023/08/11 01:02:42;;;;;;;3.40;1.10;;;17.00;47.90;;;;;;5036185;28;20189;-80
2023/08/11 01:05:19;;;;;;;8.90;1.90;;;17.10;47.70;;;;;;5053726;28;20232;-77
2023/08/11 01:08:20;;;;;;;2.90;1.20;;;17.20;47.40;;;;;;5054793;28;20194;-75
2023/08/11 01:11:22;;;;;;;2.97;1.10;;;17.20;47.40;;;;;;5048270;28;20203;-79
2023/08/11 01:14:19;;;;;;;3.07;1.40;;;17.00;47.00;;;;;;5049085;28;20174;-78
2023/08/11 01:16:51;;;;;;;4.13;1.30;;;17.30;47.70;;;;;;5051585;28;20593;-80
2023/08/11 01:19:31;;;;;;;4.70;1.17;;;17.50;46.90;;;;;;5053235;28;20172;-81
2023/08/11 01:22:02;;;;;;;4.93;1.43;;;17.70;46.00;;;;;;5046118;28;20208;-81
2023/08/11 01:24:30;;;;;;;1.80;1.13;;;17.80;46.00;;;;;;5050272;28;20204;-79
2023/08/11 01:26:58;;;;;;;4.33;1.30;;;18.00;46.00;;;;;;5044198;28;20219;-80
2023/08/11 01:29:26;;;;;;;2.17;1.20;;;18.20;45.50;;;;;;5046809;28;20283;-79
2023/08/11 01:31:56;;;;;;;2.43;1.20;;;18.50;45.40;;;;;;5049893;28;20188;-80
2023/08/11 01:34:24;;;;;;;2.37;0.90;;;18.30;44.10;;;;;;5051211;28;20172;-79
2023/08/11 01:36:58;;;;;;;1.77;0.93;;;18.50;43.30;;;;;;5046878;28;20215;-78
2023/08/11 01:39:25;;;;;;;2.33;1.10;;;18.30;43.60;;;;;;5049246;28;20192;-76
2023/08/11 01:41:54;;;;;;;2.63;1.20;;;18.60;43.50;;;;;;5051393;28;20684;-78
2023/08/11 01:44:22;;;;;;;5.27;1.17;;;18.80;44.00;;;;;;5033039;28;20191;-79
2023/08/11 01:46:53;;;;;;;3.83;1.07;;;19.00;43.10;;;;;;5032950;28;20250;-81
2023/08/11 01:49:27;;;;;;;3.90;1.10;;;19.00;42.40;;;;;;5051048;28;20180;-81
2023/08/11 01:51:55;;;;;;;5.47;1.17;;;18.90;41.70;;;;;;5052399;28;20184;-82
2023/08/11 01:54:26;;;;;;;2.13;0.80;;;18.90;40.40;;;;;;5048879;28;20263;-81
2023/08/11 01:56:54;;;;;;;2.07;0.90;;;19.10;40.90;;;;;;5045423;28;20723;-79
2023/08/11 01:59:23;;;;;;;1.57;0.90;;;19.20;39.70;;;;;;5048507;28;20180;-79
2023/08/11 02:01:51;;;;;;;3.87;1.50;;;19.30;40.10;;;;;;5053138;28;20188;-78
2023/08/11 02:04:19;;;;;;;2.73;0.87;;;18.90;40.20;;;;;;5051127;28;20183;-80
2023/08/11 02:06:46;;;;;;;1.93;0.90;;;19.10;40.60;;;;;;5052946;28;20243;-80
2023/08/11 02:09:14;;;;;;;2.10;0.90;;;19.50;39.30;;;;;;5034336;28;20711;-75
2023/08/11 02:11:41;;;;;;;2.53;1.00;;;19.70;39.20;;;;;;5048963;28;20197;-79
2023/08/11 02:14:09;;;;;;;1.57;0.87;;;19.90;39.20;;;;;;5051162;28;20182;-80
2023/08/11 02:16:39;;;;;;;4.03;1.20;;;19.90;39.30;;;;;;5052572;28;20186;-79
2023/08/11 02:19:08;;;;;;;1.90;0.90;;;20.40;38.50;;;;;;5034859;28;20183;-79
2023/08/11 02:21:38;;;;;;;3.83;1.10;;;20.30;38.80;;;;;;5034307;28;20187;-79
2023/08/11 02:24:07;;;;;;;1.93;0.90;;;20.60;38.30;;;;;;5053981;28;20220;-82
2023/08/11 02:26:34;;;;;;;2.13;0.87;;;20.80;37.40;;;;;;5046956;28;20207;-78
2023/08/11 02:29:03;;;;;;;2.70;1.07;;;20.70;36.30;;;;;;5049682;28;20187;-78
2023/08/11 02:31:33;;;;;;;2.77;0.90;;;20.70;36.20;;;;;;5067668;28;20184;-78
2023/08/11 02:34:00;;;;;;;1.50;0.90;;;20.30;36.30;;;;;;5067046;28;20187;-80
2023/08/11 02:36:28;;;;;;;1.80;0.80;;;20.50;36.20;;;;;;5074609;28;20223;-80
2023/08/11 02:38:56;;;;;;;2.33;0.80;;;20.90;35.50;;;;;;5075596;28;20198;-78
2023/08/11 02:41:23;;;;;;;1.17;0.60;;;20.90;35.30;;;;;;5072044;28;20176;-78
2023/08/11 02:43:51;;;;;;;2.33;1.30;;;20.70;35.90;;;;;;5068663;28;20606;-82
2023/08/11 02:46:18;;;;;;;2.77;1.10;;;20.80;35.50;;;;;;5047144;28;20253;-78
2023/08/11 02:48:46;;;;;;;4.27;0.90;;;21.20;34.90;;;;;;5066212;28;20187;-82
2023/08/11 02:51:13;;;;;;;1.67;0.80;;;21.20;35.00;;;;;;5063688;28;20287;-78
2023/08/11 02:53:40;;;;;;;1.43;0.80;;;21.00;35.20;;;;;;5052265;28;20539;-78
2023/08/11 02:56:09;;;;;;;2.70;0.83;;;21.40;34.80;;;;;;5054528;28;20215;-81
2023/08/11 02:58:37;;;;;;;3.93;1.00;;;21.40;34.60;;;;;;5053546;28;20172;-80
2023/08/11 03:01:06;;;;;;;3.37;0.87;;;21.00;35.00;;;;;;5048720;28;20699;-83
2023/08/11 03:03:33;;;;;;;4.33;1.10;;;20.40;36.20;;;;;;5052312;28;20188;-78
2023/08/11 03:06:04;;;;;;;5.13;1.20;;;20.60;35.60;;;;;;5051908;28;20224;-76
2023/08/11 03:08:32;;;;;;;3.63;1.10;;;20.60;35.80;;;;;;5052854;28;20212;-76
2023/08/11 03:11:00;;;;;;;4.37;1.27;;;20.80;36.80;;;;;;5051570;28;20251;-79
2023/08/11 03:13:28;;;;;;;4.17;1.07;;;20.60;39.30;;;;;;5048429;28;20204;-77
2023/08/11 03:15:58;;;;;;;2.60;1.10;;;20.70;39.10;;;;;;5051666;28;20241;-76
2023/08/11 03:18:26;;;;;;;3.83;1.13;;;20.50;39.20;;;;;;5048807;28;20184;-76
2023/08/11 03:20:53;;;;;;;7.57;1.03;;;20.90;38.90;;;;;;5053277;28;20697;-80
2023/08/11 03:23:22;;;;;;;1.77;1.07;;;20.50;38.80;;;;;;5055496;28;20219;-85
2023/08/11 03:25:49;;;;;;;3.07;0.97;;;20.70;37.80;;;;;;5038535;28;20569;-80
2023/08/11 03:28:17;;;;;;;5.23;1.33;;;20.90;37.40;;;;;;5055547;28;20210;-81
2023/08/11 03:30:47;;;;;;;2.87;1.10;;;21.10;37.70;;;;;;5056336;28;20279;-77
2023/08/11 03:33:16;;;;;;;3.07;1.30;;;21.50;36.90;;;;;;5052553;28;20204;-81
2023/08/11 03:35:43;;;;;;;1.67;0.97;;;21.20;38.70;;;;;;5059591;28;20280;-81
2023/08/11 03:38:10;;;;;;;3.30;1.00;;;21.70;38.40;;;;;;5057235;28;20267;-79
2023/08/11 03:40:38;;;;;;;3.80;1.20;;;21.80;38.60;;;;;;5059819;28;20187;-80
2023/08/11 03:43:08;;;;;;;4.20;1.17;;;21.50;39.10;;;;;;5037258;28;20203;-78
2023/08/11 03:45:36;;;;;;;2.10;1.07;;;21.60;37.40;;;;;;5046146;28;20215;-80
2023/08/11 03:48:03;;;;;;;3.13;1.10;;;21.80;36.40;;;;;;5052992;28;20253;-79
2023/08/11 03:50:34;;;;;;;5.73;1.10;;;21.80;36.30;;;;;;5051901;28;20216;-75
2023/08/11 03:53:01;;;;;;;4.77;1.17;;;22.00;36.80;;;;;;5050726;28;20215;-81
2023/08/11 03:55:31;;;;;;;5.40;2.50;;;22.10;37.20;;;;;;5055224;28;20184;-78
2023/08/11 03:58:03;;;;;;;6.77;3.30;;;22.70;36.00;;;;;;5056000;28;20192;-82
2023/08/11 04:00:30;;;;;;;3.27;1.57;;;22.40;36.20;;;;;;5055136;28;20211;-76
2023/08/11 04:02:58;;;;;;;3.63;0.90;;;22.50;35.60;;;;;;5051319;28;20187;-77
2023/08/11 04:05:27;;;;;;;3.67;1.10;;;21.80;35.70;;;;;;5053903;28;20188;-75
2023/08/11 04:07:54;;;;;;;2.80;0.97;;;22.20;35.40;;;;;;5053697;28;20196;-75
2023/08/11 04:10:22;;;;;;;2.20;1.13;;;22.60;34.20;;;;;;5055579;28;20183;-80
2023/08/11 04:12:50;;;;;;;4.17;1.27;;;22.70;35.30;;;;;;5053868;28;20664;-78
2023/08/11 04:15:18;;;;;;;4.93;1.43;;;23.10;34.90;;;;;;5049353;28;20168;-74
2023/08/11 04:17:45;;;;;;;11.73;1.90;;;22.50;37.20;;;;;;5051971;28;20195;-75
2023/08/11 04:20:13;;;;;;;6.63;1.13;;;21.80;39.90;;;;;;5053764;28;20226;-74
2023/08/11 04:22:43;;;;;;;4.97;1.03;;;22.00;40.10;;;;;;5051309;28;20535;-76
2023/08/11 04:25:12;;;;;;;5.83;1.20;;;22.00;39.40;;;;;;5049251;28;20202;-73
2023/08/11 04:27:39;;;;;;;5.03;1.27;;;22.10;37.60;;;;;;5051782;28;20303;-74
2023/08/11 04:30:08;;;;;;;3.57;1.17;;;21.80;38.40;;;;;;5049634;28;20191;-73
2023/08/11 04:32:36;;;;;;;5.90;1.50;;;22.00;38.40;;;;;;5048713;28;20180;-75
2023/08/11 04:35:09;;;;;;;3.50;1.00;;;22.10;39.40;;;;;;5054429;28;20190;-72
2023/08/11 04:37:57;;;;;;;4.33;1.17;;;21.00;42.90;;;;;;5048176;28;20258;-72
2023/08/11 04:40:27;;;;;;;3.53;1.17;;;21.20;43.80;;;;;;5049780;28;20181;-73
2023/08/11 04:42:57;;;;;;;3.27;1.10;;;21.80;42.00;;;;;;5052808;28;20642;-74
2023/08/11 04:45:25;;;;;;;3.53;1.27;;;21.90;42.00;;;;;;5051744;28;20183;-73
2023/08/11 04:47:56;;;;;;;3.27;1.13;;;22.20;41.50;;;;;;5048750;28;20241;-73
2023/08/11 04:50:23;;;;;;;3.50;1.10;;;22.20;41.10;;;;;;5053551;28;20204;-76
2023/08/11 04:52:52;;;;;;;6.13;1.30;;;21.90;42.00;;;;;;5051085;28;20313;-76
2023/08/11 04:55:20;;;;;;;5.77;1.33;;;22.10;41.30;;;;;;5048915;28;20659;-74
2023/08/11 04:57:50;;;;;;;5.27;1.33;;;22.00;41.90;;;;;;5053561;28;20187;-76
2023/08/11 05:00:18;;;;;;;5.90;1.13;;;22.80;40.40;;;;;;5053060;28;20637;-76
2023/08/11 05:02:47;;;;;;;8.03;1.30;;;22.10;41.90;;;;;;5052094;28;20614;-74
2023/08/11 05:05:14;;;;;;;3.83;1.20;;;22.10;42.80;;;;;;5035089;28;20203;-75
2023/08/11 05:07:42;;;;;;;4.87;1.43;;;22.30;42.00;;;;;;5051823;28;20281;-76
2023/08/11 05:10:10;;;;;;;3.80;1.33;;;22.30;42.10;;;;;;5052498;28;20211;-74
2023/08/11 05:12:37;;;;;;;6.00;1.67;;;22.30;42.60;;;;;;5053566;28;20195;-73
2023/08/11 05:15:07;;;;;;;2.17;0.90;;;22.40;41.50;;;;;;5053441;28;20184;-75
2023/08/11 05:17:36;;;;;;;5.73;1.33;;;22.80;41.70;;;;;;5053522;28;20206;-75
2023/08/11 05:20:07;;;;;;;5.10;1.60;;;23.10;41.30;;;;;;5052720;28;20192;-78
2023/08/11 05:22:35;;;;;;;4.90;1.37;;;23.30;40.30;;;;;;5052036;28;20196;-73
2023/08/11 05:25:06;;;;;;;6.03;1.40;;;22.80;41.00;;;;;;5050654;28;20183;-75
2023/08/11 05:27:34;;;;;;;4.20;1.20;;;21.90;42.80;;;;;;5047548;28;20253;-75
2023/08/11 05:30:01;;;;;;;4.70;1.50;;;22.40;42.90;;;;;;5052611;28;20194;-74
2023/08/11 05:32:29;;;;;;;3.97;1.57;;;22.50;41.90;;;;;;5046297;28;20184;-76
2023/08/11 05:34:58;;;;;;;5.13;1.63;;;22.80;41.30;;;;;;5052444;28;20673;-76
2023/08/11 05:37:32;;;;;;;4.20;1.00;;;23.60;39.70;;;;;;5052601;28;20251;-73
2023/08/11 05:39:59;;;;;;;5.70;1.40;;;22.30;41.90;;;;;;5052576;28;20210;-75
2023/08/11 05:42:27;;;;;;;4.57;1.40;;;22.30;42.10;;;;;;5050021;28;20184;-75
2023/08/11 05:44:54;;;;;;;5.90;1.37;;;22.40;41.70;;;;;;5051751;28;20203;-74
2023/08/11 05:47:23;;;;;;;6.03;1.33;;;22.80;41.00;;;;;;5052509;28;20225;-74
2023/08/11 05:49:51;;;;;;;4.10;1.20;;;22.50;42.20;;;;;;5052402;28;20188;-74
2023/08/11 05:52:19;;;;;;;4.73;1.00;;;22.90;41.00;;;;;;5050443;28;20200;-77
2023/08/11 05:54:46;;;;;;;3.83;1.20;;;22.80;41.90;;;;;;5051166;28;20180;-74
2023/08/11 05:57:13;;;;;;;5.17;1.60;;;22.80;41.80;;;;;;5052086;28;20191;-77
2023/08/11 05:59:40;;;;;;;7.80;1.30;;;22.80;41.50;;;;;;5050072;28;20245;-75
2023/08/11 06:02:08;;;;;;;4.63;1.50;;;22.50;41.80;;;;;;5051006;28;20192;-74
2023/08/11 06:04:36;;;;;;;5.03;1.27;;;22.90;41.10;;;;;;5051203;28;20633;-74
2023/08/11 06:07:03;;;;;;;3.27;1.20;;;22.30;42.30;;;;;;5051802;28;20661;-75
2023/08/11 06:09:31;;;;;;;3.10;1.40;;;22.80;41.80;;;;;;5052489;28;20248;-75
2023/08/11 06:12:02;;;;;;;5.67;1.40;;;22.60;41.60;;;;;;5034360;28;20199;-73
2023/08/11 06:14:34;;;;;;;4.17;1.30;;;22.80;41.50;;;;;;5052631;28;20183;-74
2023/08/11 06:17:01;;;;;;;6.70;1.57;;;21.30;44.00;;;;;;5051092;28;20556;-74
2023/08/11 06:19:30;;;;;;;4.90;1.27;;;20.80;45.60;;;;;;5052486;28;20180;-73
2023/08/11 06:21:57;;;;;;;4.60;1.20;;;20.20;47.10;;;;;;5034768;28;20186;-75
2023/08/11 06:24:25;;;;;;;3.27;1.20;;;20.00;47.50;;;;;;5051516;28;20263;-74
2023/08/11 06:26:53;;;;;;;7.87;1.30;;;19.80;48.20;;;;;;5054635;28;20211;-74
2023/08/11 06:29:31;;;;;;;4.57;1.50;;;19.50;48.50;;;;;;5044247;28;20226;-75
2023/08/11 06:31:59;;;;;;;8.70;1.80;;;19.20;49.90;;;;;;5054456;28;20209;-74
2023/08/11 06:34:27;;;;;;;7.20;1.77;;;18.80;50.60;;;;;;5067638;28;20183;-74
2023/08/11 06:36:55;;;;;;;6.40;1.60;;;18.80;51.30;;;;;;5065197;28;20247;-74
2023/08/11 06:39:24;;;;;;;4.60;1.77;;;18.70;51.60;;;;;;5051463;28;20179;-75
2023/08/11 06:41:51;;;;;;;5.27;1.70;;;18.40;51.80;;;;;;5066654;28;20184;-72
2023/08/11 06:44:18;;;;;;;6.90;2.13;;;18.30;52.10;;;;;;5062938;28;20222;-73
2023/08/11 06:46:47;;;;;;;5.37;1.63;;;18.20;52.70;;;;;;5064905;28;20211;-73
2023/08/11 06:49:14;;;;;;;5.07;1.73;;;18.10;52.90;;;;;;5062858;28;20173;-72
2023/08/11 06:51:41;;;;;;;7.13;1.40;;;17.90;53.30;;;;;;5068552;28;20187;-74
2023/08/11 06:54:09;;;;;;;4.33;1.43;;;17.80;53.50;;;;;;5068361;28;21498;-79
2023/08/11 06:56:36;;;;;;;6.77;1.43;;;17.80;53.80;;;;;;5071668;28;20241;-77
2023/08/11 06:59:08;;;;;;;6.77;1.80;;;17.80;54.60;;;;;;5072597;28;20198;-81
2023/08/11 07:01:35;;;;;;;9.67;1.83;;;17.70;54.50;;;;;;5063180;28;20195;-78
2023/08/11 07:04:04;;;;;;;5.77;1.60;;;17.60;54.50;;;;;;5056615;28;20247;-76
2023/08/11 07:06:31;;;;;;;2.90;1.37;;;17.40;55.00;;;;;;5039097;28;20290;-81
2023/08/11 07:08:58;;;;;;;7.47;1.50;;;17.30;55.10;;;;;;5055450;28;20235;-80
2023/08/11 07:11:26;;;;;;;4.53;1.70;;;17.20;55.50;;;;;;5058830;28;20260;-81
2023/08/11 07:13:57;;;;;;;9.37;1.93;;;17.10;55.90;;;;;;5055125;28;20183;-81
2023/08/11 07:16:24;;;;;;;8.70;2.10;;;17.00;56.20;;;;;;5055463;28;20191;-80
2023/08/11 07:18:52;;;;;;;6.03;1.90;;;16.90;56.40;;;;;;5054256;28;20192;-80
2023/08/11 07:21:19;;;;;;;7.17;1.70;;;16.80;56.80;;;;;;5052989;28;20180;-79
2023/08/11 07:23:47;;;;;;;8.57;2.10;;;16.70;57.40;;;;;;5054670;28;20233;-77
2023/08/11 07:26:14;;;;;;;4.13;1.60;;;16.70;58.00;;;;;;5054262;28;20243;-83
2023/08/11 07:28:41;;;;;;;8.77;1.67;;;16.50;58.50;;;;;;5055082;28;20195;-80
2023/08/11 07:31:09;;;;;;;6.90;1.90;;;16.40;58.80;;;;;;5054626;28;20368;-77
2023/08/11 07:33:36;;;;;;;5.90;1.80;;;16.30;59.00;;;;;;5054844;28;20270;-77
2023/08/11 07:36:06;;;;;;;6.80;2.20;;;16.30;59.50;;;;;;5054959;28;20233;-77
2023/08/11 07:38:33;;;;;;;6.80;1.80;;;16.20;59.50;;;;;;5054854;28;20188;-79
2023/08/11 07:41:01;;;;;;;4.20;1.53;;;16.10;59.60;;;;;;5052510;28;20180;-79
2023/08/11 07:43:28;;;;;;;5.07;1.30;;;16.10;59.70;;;;;;5050076;28;20190;-75
2023/08/11 07:45:55;;;;;;;4.00;1.40;;;16.00;59.60;;;;;;5036242;28;20204;-81
2023/08/11 07:48:23;;;;;;;3.87;1.80;;;15.90;60.00;;;;;;5054846;28;20212;-79
2023/08/11 07:50:50;;;;;;;4.47;1.50;;;15.90;60.40;;;;;;5053981;28;20179;-79
2023/08/11 07:53:18;;;;;;;6.37;1.57;;;15.80;60.80;;;;;;5049879;28;20185;-77
2023/08/11 07:55:45;;;;;;;7.13;1.90;;;15.80;60.70;;;;;;5041603;28;20180;-80
2023/08/11 07:58:12;;;;;;;5.60;1.53;;;15.80;61.10;;;;;;5052315;28;20183;-80
2023/08/11 08:00:40;;;;;;;6.70;1.77;;;15.70;61.10;;;;;;5052269;28;20180;-80
2023/08/11 08:03:07;;;;;;;4.07;1.63;;;15.70;61.40;;;;;;5052903;28;20657;-77
2023/08/11 08:05:34;;;;;;;6.67;2.20;;;15.60;61.80;;;;;;5053933;28;20172;-78
2023/08/11 08:08:02;;;;;;;7.10;2.33;;;15.60;62.10;;;;;;5054723;28;20184;-79
2023/08/11 08:10:29;;;;;;;7.70;2.20;;;15.60;62.30;;;;;;5054532;28;20561;-77
2023/08/11 08:12:56;;;;;;;4.67;2.50;;;15.50;62.40;;;;;;5052314;28;20171;-80
2023/08/11 08:15:24;;;;;;;10.47;2.30;;;15.50;62.60;;;;;;5054330;28;20172;-79
2023/08/11 08:17:51;;;;;;;6.30;2.13;;;15.40;62.70;;;;;;5048434;28;20173;-77
2023/08/11 08:20:19;;;;;;;3.67;1.90;;;15.40;63.00;;;;;;5051937;28;20180;-77
2023/08/11 08:22:46;;;;;;;5.53;1.60;;;15.30;62.90;;;;;;5054160;28;20180;-79
2023/08/11 08:25:14;;;;;;;6.63;2.20;;;15.30;63.10;;;;;;5032349;28;20567;-79
2023/08/11 08:27:45;;;;;;;4.90;1.77;;;15.30;63.40;;;;;;5033394;28;20215;-77
2023/08/11 08:30:15;;;;;;;11.43;2.47;;;15.30;63.60;;;;;;5054144;28;20184;-77
2023/08/11 08:32:43;;;;;;;7.07;2.00;;;15.30;63.90;;;;;;5053163;28;20202;-78
2023/08/11 08:35:11;;;;;;;8.47;1.90;;;15.20;63.90;;;;;;5052431;28;20184;-77
2023/08/11 08:37:39;;;;;;;5.43;2.10;;;15.20;64.00;;;;;;5051874;28;20227;-78
2023/08/11 08:40:08;;;;;;;6.77;2.27;;;15.10;64.30;;;;;;5035592;28;20179;-77
2023/08/11 08:42:35;;;;;;;6.70;2.00;;;15.10;64.30;;;;;;5045783;28;20240;-78
2023/08/11 08:45:03;;;;;;;8.20;2.40;;;15.00;64.50;;;;;;5052245;28;20182;-81
2023/08/11 08:47:32;;;;;;;10.53;2.23;;;15.00;64.60;;;;;;5050865;28;20683;-80
2023/08/11 08:50:00;;;;;;;10.43;2.30;;;15.00;64.50;;;;;;5051175;28;20268;-82
2023/08/11 08:52:28;;;;;;;6.77;2.23;;;14.90;64.50;;;;;;5049099;28;20178;-83
2023/08/11 08:55:03;;;;;;;9.00;2.47;;;14.90;64.30;;;;;;5052474;28;20176;-83
2023/08/11 08:57:32;;;;;;;5.60;1.93;;;14.90;64.40;;;;;;5052461;28;20175;-78
2023/08/11 08:59:59;;;;;;;5.77;2.30;;;14.90;64.70;;;;;;5051582;28;20230;-79
2023/08/11 09:02:30;;;;;;;8.60;2.10;;;14.90;64.60;;;;;;5052079;28;20190;-80
2023/08/11 09:04:58;;;;;;;5.93;2.63;;;14.90;64.60;;;;;;5053329;28;20180;-85
2023/08/11 09:07:27;;;;;;;6.27;2.30;;;14.90;64.90;;;;;;5034213;28;20252;-79
2023/08/11 09:09:55;;;;;;;7.67;2.60;;;14.80;64.60;;;;;;5053327;28;20179;-84
2023/08/11 09:12:25;;;;;;;7.03;2.87;;;14.80;64.70;;;;;;5045401;28;20700;-80
2023/08/11 09:14:58;;;;;;;10.03;2.80;;;14.80;64.90;;;;;;5051463;28;20588;-84
2023/08/11 09:17:27;;;;;;;12.60;2.80;;;14.80;64.60;;;;;;5052126;28;20230;-84
2023/08/11 09:19:56;;;;;;;4.33;1.97;;;14.80;63.60;;;;;;5052184;28;20182;-82
2023/08/11 09:22:26;;;;;;;3.83;2.17;;;14.80;63.60;;;;;;5031812;28;20184;-81
2023/08/11 09:24:55;;;;;;;8.53;2.87;;;14.80;63.50;;;;;;5049446;28;20199;-76
2023/08/11 09:27:23;;;;;;;5.97;2.10;;;14.80;63.40;;;;;;5050064;28;20208;-86
2023/08/11 09:29:50;;;;;;;5.60;1.87;;;14.80;63.30;;;;;;5049401;28;20252;-87
2023/08/11 09:32:22;;;;;;;7.27;2.07;;;14.80;63.40;;;;;;5046091;28;20175;-85
2023/08/11 09:34:50;;;;;;;3.70;2.17;;;14.80;63.40;;;;;;5052357;28;20207;-82
2023/08/11 09:37:18;;;;;;;9.47;2.13;;;14.80;63.50;;;;;;5050142;28;20230;-85
2023/08/11 09:39:45;;;;;;;9.23;2.17;;;14.70;63.40;;;;;;5053151;28;20172;-78
2023/08/11 09:42:15;;;;;;;9.23;2.47;;;14.70;63.40;;;;;;5045616;28;20207;-82
2023/08/11 09:44:44;;;;;;;8.43;2.20;;;14.70;63.60;;;;;;5052745;28;20270;-78
2023/08/11 09:47:14;;;;;;;3.40;1.80;;;14.60;63.60;;;;;;5051587;28;20215;-79
2023/08/11 09:49:42;;;;;;;5.50;1.83;;;14.60;63.60;;;;;;5047059;28;20276;-78
2023/08/11 09:52:11;;;;;;;3.10;1.70;;;14.60;63.80;;;;;;5047378;28;20658;-77
2023/08/11 09:54:45;;;;;;;5.63;1.93;;;14.50;64.10;;;;;;5019375;28;20206;-80
2023/08/11 09:57:14;;;;;;;5.57;2.10;;;14.50;64.40;;;;;;5033639;28;20188;-81
2023/08/11 09:59:44;;;;;;;5.87;2.13;;;14.40;64.90;;;;;;5051722;28;20187;-78
2023/08/11 10:02:17;;;;;;;3.17;1.90;;;14.40;65.00;;;;;;5050674;28;20274;-79
2023/08/11 10:04:59;;;;;;;6.40;2.20;;;14.30;65.00;;;;;;5051294;28;20650;-79
2023/08/11 10:07:40;;;;;;;9.10;2.30;;;14.40;65.30;;;;;;5034063;28;20249;-78
2023/08/11 10:10:18;;;;;;;4.97;1.87;;;14.40;64.90;;;;;;5051825;28;20187;-78
2023/08/11 10:12:58;;;;;;;8.00;3.00;;;14.40;65.00;;;;;;5052271;28;20650;-78
2023/08/11 10:15:27;;;;;;;5.50;1.97;;;14.40;65.10;;;;;;5054447;28;20278;-81
2023/08/11 10:17:55;;;;;;;7.70;2.30;;;14.40;65.40;;;;;;5048692;28;20183;-79
2023/08/11 10:20:23;;;;;;;5.77;3.00;;;14.30;65.50;;;;;;5050762;28;20173;-79
2023/08/11 10:22:51;;;;;;;5.93;2.27;;;14.30;65.80;;;;;;5051787;28;20184;-80
2023/08/11 10:25:19;;;;;;;3.80;2.47;;;14.30;65.80;;;;;;5051895;28;20172;-79
2023/08/11 10:27:47;;;;;;;7.13;2.20;;;14.30;65.90;;;;;;5033252;28;20298;-77
2023/08/11 10:30:15;;;;;;;7.47;2.30;;;14.30;65.60;;;;;;5053386;28;20224;-76
2023/08/11 10:32:42;;;;;;;7.27;2.27;;;14.20;65.60;;;;;;5056014;28;20187;-79
2023/08/11 10:35:48;;;;;;;5.93;2.23;;;14.30;65.40;;;;;;5060261;28;20819;-78
2023/08/11 10:38:38;;;;;;;6.67;2.17;;;14.30;65.20;;;;;;5056060;28;20193;-78
2023/08/11 10:41:18;;;;;;;4.83;2.23;;;14.30;65.40;;;;;;5062540;28;20191;-79
2023/08/11 10:43:48;;;;;;;9.57;2.10;;;14.30;65.50;;;;;;5053199;28;20184;-78
2023/08/11 10:46:32;;;;;;;3.47;1.97;;;14.30;65.50;;;;;;5053856;28;20662;-79
2023/08/11 10:49:31;;;;;;;5.47;1.97;;;14.30;65.70;;;;;;5074892;28;20187;-79
2023/08/11 10:52:00;;;;;;;10.03;2.20;;;14.20;66.00;;;;;;5077271;28;20179;-87
2023/08/11 10:54:28;;;;;;;8.27;2.53;;;14.20;66.20;;;;;;5072168;28;20172;-79
2023/08/11 10:57:03;;;;;;;12.70;2.40;;;14.10;66.50;;;;;;5047979;28;20318;-86
2023/08/11 10:59:33;;;;;;;4.93;2.50;;;14.10;66.60;;;;;;5068211;28;20286;-85
2023/08/11 11:02:01;;;;;;;4.93;2.43;;;14.00;66.80;;;;;;5047869;28;20203;-81
2023/08/11 11:04:30;;;;;;;6.83;2.50;;;14.00;66.90;;;;;;5040267;28;20189;-81
2023/08/11 11:07:00;;;;;;;8.87;2.50;;;13.90;67.50;;;;;;5040375;28;20223;-81
2023/08/11 11:09:30;;;;;;;7.40;2.30;;;13.90;67.30;;;;;;5055417;28;20181;-79
2023/08/11 11:11:58;;;;;;;4.43;2.37;;;13.80;67.50;;;;;;5036931;28;20222;-87
2023/08/11 11:14:25;;;;;;;7.57;2.43;;;13.80;68.20;;;;;;5056986;28;20530;-89
2023/08/11 11:16:54;;;;;;;6.60;2.60;;;13.80;68.30;;;;;;5056821;28;20168;-78
2023/08/11 11:19:23;;;;;;;6.30;2.80;;;13.70;68.60;;;;;;5032832;28;20203;-83
2023/08/11 11:21:52;;;;;;;5.53;2.47;;;13.60;68.60;;;;;;5052539;28;20184;-80
2023/08/11 11:24:20;;;;;;;8.03;2.60;;;13.60;69.00;;;;;;5052278;28;20176;-80
2023/08/11 11:26:47;;;;;;;3.27;2.30;;;13.50;69.30;;;;;;5056308;28;20230;-78
2023/08/11 11:29:16;;;;;;;6.50;2.63;;;13.50;70.80;;;;;;5054625;28;20641;-80
2023/08/11 11:31:43;;;;;;;7.53;2.57;;;13.50;70.70;;;;;;5037109;28;20191;-82
2023/08/11 11:34:11;;;;;;;7.10;2.50;;;13.50;70.20;;;;;;5054130;28;20180;-80
2023/08/11 11:36:38;;;;;;;8.30;3.07;;;13.40;70.30;;;;;;5035767;28;20231;-80
2023/08/11 11:39:08;;;;;;;9.97;3.57;;;13.40;70.20;;;;;;5046575;28;20180;-78
2023/08/11 11:41:36;;;;;;;6.57;3.37;;;13.30;70.70;;;;;;5054334;28;20704;-80
2023/08/11 11:44:04;;;;;;;8.33;2.73;;;13.20;70.70;;;;;;5051682;28;20208;-78
2023/08/11 11:46:33;;;;;;;8.07;3.50;;;13.20;70.70;;;;;;5056053;28;20196;-78
2023/08/11 11:49:03;;;;;;;4.87;2.47;;;13.10;71.20;;;;;;5054331;28;20210;-77
2023/08/11 11:51:31;;;;;;;6.77;2.67;;;13.10;71.10;;;;;;5048817;28;20187;-84
2023/08/11 11:53:59;;;;;;;5.17;2.97;;;13.00;71.50;;;;;;5055765;28;20187;-89
2023/08/11 11:56:31;;;;;;;6.43;2.43;;;12.90;71.90;;;;;;5055681;28;20659;-85
2023/08/11 11:58:59;;;;;;;6.40;2.63;;;12.90;71.80;;;;;;5035502;28;20188;-88
2023/08/11 12:01:29;;;;;;;6.50;2.60;;;12.80;72.40;;;;;;5055679;28;20577;-89
2023/08/11 12:03:59;;;;;;;5.87;2.43;;;12.80;72.30;;;;;;5035794;28;20176;-78
2023/08/11 12:06:30;;;;;;;3.80;2.17;;;12.70;72.70;;;;;;5054152;28;20678;-79
2023/08/11 12:09:12;;;;;;;4.80;2.43;;;12.60;72.90;;;;;;5036256;28;20642;-77
2023/08/11 12:11:43;;;;;;;4.30;2.03;;;12.60;73.70;;;;;;5052622;28;20290;-79
2023/08/11 12:14:15;;;;;;;5.43;2.23;;;12.70;73.40;;;;;;5054326;28;20194;-81
2023/08/11 12:16:43;;;;;;;7.00;2.17;;;12.70;73.30;;;;;;5053194;28;20188;-82
2023/08/11 12:19:10;;;;;;;8.67;2.97;;;12.80;73.40;;;;;;5050187;28;20172;-78
2023/08/11 12:21:37;;;;;;;7.37;2.90;;;12.80;73.50;;;;;;5050179;28;20191;-81
2023/08/11 12:24:07;;;;;;;9.63;2.93;;;12.80;73.80;;;;;;5051656;28;20191;-80
2023/08/11 12:26:34;;;;;;;8.70;3.30;;;12.80;73.60;;;;;;5055094;28;20300;-83
2023/08/11 12:29:02;;;;;;;5.83;3.10;;;12.90;73.60;;;;;;5053776;28;20180;-78
2023/08/11 12:31:29;;;;;;;8.73;3.53;;;12.80;73.50;;;;;;5056987;28;20215;-79
2023/08/11 12:33:56;;;;;;;9.60;2.97;;;12.90;74.00;;;;;;5053743;28;20742;-79
2023/08/11 12:36:24;;;;;;;5.97;2.80;;;12.80;73.50;;;;;;5051092;28;20223;-78
2023/08/11 12:38:51;;;;;;;7.17;2.63;;;12.80;73.90;;;;;;5051670;28;20692;-81
2023/08/11 12:41:22;;;;;;;9.03;2.93;;;12.70;74.00;;;;;;5035468;28;20629;-78
2023/08/11 12:43:53;;;;;;;5.43;2.50;;;12.80;74.20;;;;;;5033833;28;20275;-79
2023/08/11 12:46:20;;;;;;;9.53;2.33;;;12.70;74.10;;;;;;5051167;28;20214;-80
2023/08/11 12:48:48;;;;;;;6.90;2.50;;;12.60;74.40;;;;;;5050266;28;20191;-79
2023/08/11 12:51:15;;;;;;;3.93;2.10;;;12.50;74.40;;;;;;5028718;28;20180;-79
2023/08/11 12:53:43;;;;;;;5.87;2.37;;;12.50;74.60;;;;;;5053111;28;20180;-79
2023/08/11 12:56:10;;;;;;;8.27;2.53;;;12.50;74.70;;;;;;5053059;28;20648;-81